sensor_id;sensor_type;location;lat;lon;timestamp;noise_LAeq;noise_LA_min;noise_LA_max;noise_LA01;noise_LA95
67298;Laerm;65443;51.436;5.978;2023-03-01T00:00:02;57.13;48.63;63.88;;
67298;Laerm;65443;51.436;5.978;2023-03-01T00:00:13;55.60;49.02;67.21;;
67298;Laerm;65443;51.436;5.978;2023-03-01T00:00:23;54.28;50.74;56.68;;
67298;Laerm;65443;51.436;5.978;2023-03-01T00:00:34;54.16;50.25;56.59;;
67298;Laerm;65443;51.436;5.978;2023-03-01T00:00:44;68.52;51.57;76.70;;
67298;Laerm;65443;51.436;5.978;2023-03-01T00:01:03;74.39;69.83;78.97;;
67298;Laerm;65443;51.436;5.978;2023-03-01T00:01:15;73.59;59.32;80.04;;
67298;Laerm;65443;51.436;5.978;2023-03-01T00:01:27;54.13;39.10;61.93;;
67298;Laerm;65443;51.436;5.978;2023-03-01T00:01:37;39.56;36.11;43.65;;
67298;Laerm;65443;51.436;5.978;2023-03-01T00:01:47;52.17;39.20;57.94;;
67298;Laerm;65443;51.436;5.978;2023-03-01T00:01:58;43.46;31.99;55.10;;
67298;Laerm;65443;51.436;5.978;2023-03-01T00:02:08;32.00;30.21;33.90;;
67298;Laerm;65443;51.436;5.978;2023-03-01T00:02:19;30.95;29.13;32.51;;
67298;Laerm;65443;51.436;5.978;2023-03-01T00:02:29;30.75;29.16;32.13;;
67298;Laerm;65443;51.436;5.978;2023-03-01T00:02:39;31.26;29.76;33.29;;
67298;Laerm;65443;51.436;5.978;2023-03-01T00:02:49;31.70;29.93;34.39;;
67298;Laerm;65443;51.436;5.978;2023-03-01T00:03:00;31.61;29.94;33.42;;
67298;Laerm;65443;51.436;5.978;2023-03-01T00:03:10;31.59;29.68;33.98;;
67298;Laerm;65443;51.436;5.978;2023-03-01T00:03:21;31.42;29.49;34.43;;
67298;Laerm;65443;51.436;5.978;2023-03-01T00:03:31;30.45;28.50;33.36;;
67298;Laerm;65443;51.436;5.978;2023-03-01T00:03:42;30.47;28.95;32.36;;
67298;Laerm;65443;51.436;5.978;2023-03-01T00:03:53;30.41;28.83;31.64;;
67298;Laerm;65443;51.436;5.978;2023-03-01T00:04:03;30.63;28.85;32.84;;
67298;Laerm;65443;51.436;5.978;2023-03-01T00:04:13;30.49;28.83;32.17;;
67298;Laerm;65443;51.436;5.978;2023-03-01T00:04:23;30.43;28.94;31.74;;
67298;Laerm;65443;51.436;5.978;2023-03-01T00:04:34;30.33;28.80;31.60;;
67298;Laerm;65443;51.436;5.978;2023-03-01T00:04:45;30.35;28.93;31.90;;
67298;Laerm;65443;51.436;5.978;2023-03-01T00:04:56;30.30;28.82;31.56;;
67298;Laerm;65443;51.436;5.978;2023-03-01T00:05:06;30.31;29.08;32.10;;
67298;Laerm;65443;51.436;5.978;2023-03-01T00:05:17;30.13;28.78;31.38;;
67298;Laerm;65443;51.436;5.978;2023-03-01T00:05:27;30.20;28.54;31.37;;
67298;Laerm;65443;51.436;5.978;2023-03-01T00:05:43;30.24;28.67;31.52;;
67298;Laerm;65443;51.436;5.978;2023-03-01T00:05:53;30.10;28.81;31.48;;
67298;Laerm;65443;51.436;5.978;2023-03-01T00:06:04;30.19;28.90;31.71;;
67298;Laerm;65443;51.436;5.978;2023-03-01T00:06:15;30.28;28.76;32.92;;
67298;Laerm;65443;51.436;5.978;2023-03-01T00:06:26;30.57;29.22;32.32;;
67298;Laerm;65443;51.436;5.978;2023-03-01T00:06:36;30.40;28.83;31.90;;
67298;Laerm;65443;51.436;5.978;2023-03-01T00:06:47;30.24;28.88;31.67;;
67298;Laerm;65443;51.436;5.978;2023-03-01T00:06:57;30.31;28.89;31.92;;
67298;Laerm;65443;51.436;5.978;2023-03-01T00:07:08;30.25;29.10;32.03;;
67298;Laerm;65443;51.436;5.978;2023-03-01T00:07:18;30.24;28.96;31.50;;
67298;Laerm;65443;51.436;5.978;2023-03-01T00:07:28;30.34;28.80;32.14;;
67298;Laerm;65443;51.436;5.978;2023-03-01T00:07:38;30.27;28.99;31.81;;
67298;Laerm;65443;51.436;5.978;2023-03-01T00:07:52;30.24;28.99;32.08;;
67298;Laerm;65443;51.436;5.978;2023-03-01T00:08:02;30.12;28.95;31.45;;
67298;Laerm;65443;51.436;5.978;2023-03-01T00:08:12;29.96;28.79;31.51;;
67298;Laerm;65443;51.436;5.978;2023-03-01T00:08:23;30.04;28.77;31.27;;
67298;Laerm;65443;51.436;5.978;2023-03-01T00:08:34;30.01;28.88;31.64;;
67298;Laerm;65443;51.436;5.978;2023-03-01T00:08:45;29.93;28.59;31.16;;
67298;Laerm;65443;51.436;5.978;2023-03-01T00:08:55;30.03;28.56;31.41;;
67298;Laerm;65443;51.436;5.978;2023-03-01T00:09:05;30.02;28.87;31.62;;
67298;Laerm;65443;51.436;5.978;2023-03-01T00:09:16;29.97;28.64;31.37;;
67298;Laerm;65443;51.436;5.978;2023-03-01T00:09:26;29.96;28.70;31.48;;
67298;Laerm;65443;51.436;5.978;2023-03-01T00:09:37;30.03;28.58;31.33;;
67298;Laerm;65443;51.436;5.978;2023-03-01T00:09:47;30.18;28.58;31.83;;
67298;Laerm;65443;51.436;5.978;2023-03-01T00:09:58;30.28;28.74;31.83;;
67298;Laerm;65443;51.436;5.978;2023-03-01T00:10:08;30.42;29.05;31.85;;
67298;Laerm;65443;51.436;5.978;2023-03-01T00:10:19;30.32;28.76;31.88;;
67298;Laerm;65443;51.436;5.978;2023-03-01T00:10:29;30.19;28.96;31.71;;
67298;Laerm;65443;51.436;5.978;2023-03-01T00:10:39;30.22;28.57;31.83;;
67298;Laerm;65443;51.436;5.978;2023-03-01T00:10:49;30.19;28.74;31.57;;
67298;Laerm;65443;51.436;5.978;2023-03-01T00:11:13;30.11;28.27;32.51;;
67298;Laerm;65443;51.436;5.978;2023-03-01T00:11:25;30.29;28.77;33.01;;
67298;Laerm;65443;51.436;5.978;2023-03-01T00:11:36;30.01;28.54;31.87;;
67298;Laerm;65443;51.436;5.978;2023-03-01T00:11:46;30.38;28.79;31.88;;
67298;Laerm;65443;51.436;5.978;2023-03-01T00:11:57;30.82;29.33;32.15;;
67298;Laerm;65443;51.436;5.978;2023-03-01T00:12:07;31.10;29.07;32.96;;
67298;Laerm;65443;51.436;5.978;2023-03-01T00:12:17;30.41;28.94;31.87;;
67298;Laerm;65443;51.436;5.978;2023-03-01T00:12:27;30.23;28.88;31.53;;
67298;Laerm;65443;51.436;5.978;2023-03-01T00:12:38;30.14;28.69;31.37;;
67298;Laerm;65443;51.436;5.978;2023-03-01T00:12:48;30.12;28.82;31.42;;
67298;Laerm;65443;51.436;5.978;2023-03-01T00:12:58;30.10;28.68;31.43;;
67298;Laerm;65443;51.436;5.978;2023-03-01T00:13:09;29.98;28.59;31.71;;
67298;Laerm;65443;51.436;5.978;2023-03-01T00:13:19;30.36;28.99;34.84;;
67298;Laerm;65443;51.436;5.978;2023-03-01T00:13:29;30.33;29.01;31.47;;
67298;Laerm;65443;51.436;5.978;2023-03-01T00:13:40;30.52;29.04;33.96;;
67298;Laerm;65443;51.436;5.978;2023-03-01T00:13:51;30.16;28.95;31.63;;
67298;Laerm;65443;51.436;5.978;2023-03-01T00:14:02;30.12;28.76;31.39;;
67298;Laerm;65443;51.436;5.978;2023-03-01T00:14:14;30.24;28.88;31.66;;
67298;Laerm;65443;51.436;5.978;2023-03-01T00:14:26;30.37;28.38;31.79;;
67298;Laerm;65443;51.436;5.978;2023-03-01T00:14:36;30.46;28.98;32.03;;
67298;Laerm;65443;51.436;5.978;2023-03-01T00:14:46;30.26;28.89;31.72;;
67298;Laerm;65443;51.436;5.978;2023-03-01T00:14:57;30.35;28.91;32.16;;
67298;Laerm;65443;51.436;5.978;2023-03-01T00:15:07;30.36;28.78;31.67;;
67298;Laerm;65443;51.436;5.978;2023-03-01T00:15:18;30.09;28.78;31.38;;
67298;Laerm;65443;51.436;5.978;2023-03-01T00:15:28;30.25;28.74;31.46;;
67298;Laerm;65443;51.436;5.978;2023-03-01T00:15:39;30.19;28.83;31.52;;
67298;Laerm;65443;51.436;5.978;2023-03-01T00:15:50;30.19;29.06;31.69;;
67298;Laerm;65443;51.436;5.978;2023-03-01T00:16:03;30.22;28.63;31.47;;
67298;Laerm;65443;51.436;5.978;2023-03-01T00:16:18;30.12;28.85;31.47;;
67298;Laerm;65443;51.436;5.978;2023-03-01T00:16:30;30.24;28.65;31.81;;
67298;Laerm;65443;51.436;5.978;2023-03-01T00:16:41;30.26;28.93;31.60;;
67298;Laerm;65443;51.436;5.978;2023-03-01T00:16:51;30.13;28.74;31.44;;
67298;Laerm;65443;51.436;5.978;2023-03-01T00:17:02;30.11;28.97;31.44;;
67298;Laerm;65443;51.436;5.978;2023-03-01T00:17:12;30.13;28.61;33.42;;
67298;Laerm;65443;51.436;5.978;2023-03-01T00:17:23;30.08;28.78;31.64;;
67298;Laerm;65443;51.436;5.978;2023-03-01T00:17:33;30.14;28.71;31.81;;
67298;Laerm;65443;51.436;5.978;2023-03-01T00:17:43;30.16;28.68;31.82;;
67298;Laerm;65443;51.436;5.978;2023-03-01T00:17:53;30.24;28.97;31.74;;
67298;Laerm;65443;51.436;5.978;2023-03-01T00:18:04;30.32;28.77;31.78;;
67298;Laerm;65443;51.436;5.978;2023-03-01T00:18:14;30.39;28.77;33.19;;
67298;Laerm;65443;51.436;5.978;2023-03-01T00:18:24;30.52;28.92;32.64;;
67298;Laerm;65443;51.436;5.978;2023-03-01T00:18:35;30.55;29.19;32.31;;
67298;Laerm;65443;51.436;5.978;2023-03-01T00:18:45;30.51;29.04;32.93;;
67298;Laerm;65443;51.436;5.978;2023-03-01T00:18:55;30.48;28.76;34.20;;
67298;Laerm;65443;51.436;5.978;2023-03-01T00:19:07;30.50;29.07;34.22;;
67298;Laerm;65443;51.436;5.978;2023-03-01T00:19:18;30.36;28.74;32.78;;
67298;Laerm;65443;51.436;5.978;2023-03-01T00:19:29;30.19;28.71;31.90;;
67298;Laerm;65443;51.436;5.978;2023-03-01T00:19:39;30.22;29.07;32.36;;
67298;Laerm;65443;51.436;5.978;2023-03-01T00:19:49;30.29;28.82;31.95;;
67298;Laerm;65443;51.436;5.978;2023-03-01T00:19:59;30.20;28.73;31.75;;
67298;Laerm;65443;51.436;5.978;2023-03-01T00:20:10;30.18;29.05;31.76;;
67298;Laerm;65443;51.436;5.978;2023-03-01T00:20:20;30.20;28.77;31.90;;
67298;Laerm;65443;51.436;5.978;2023-03-01T00:20:31;30.19;28.43;31.66;;
67298;Laerm;65443;51.436;5.978;2023-03-01T00:20:41;30.47;29.42;31.89;;
67298;Laerm;65443;51.436;5.978;2023-03-01T00:20:54;30.41;28.65;31.82;;
67298;Laerm;65443;51.436;5.978;2023-03-01T00:21:05;30.37;28.71;31.84;;
67298;Laerm;65443;51.436;5.978;2023-03-01T00:21:15;30.96;29.79;33.00;;
67298;Laerm;65443;51.436;5.978;2023-03-01T00:21:26;31.21;29.18;33.19;;
67298;Laerm;65443;51.436;5.978;2023-03-01T00:21:36;31.98;29.80;36.23;;
67298;Laerm;65443;51.436;5.978;2023-03-01T00:21:47;31.48;29.65;35.29;;
67298;Laerm;65443;51.436;5.978;2023-03-01T00:21:57;31.48;29.73;35.95;;
67298;Laerm;65443;51.436;5.978;2023-03-01T00:22:07;32.19;30.11;36.74;;
67298;Laerm;65443;51.436;5.978;2023-03-01T00:22:18;31.08;28.98;32.91;;
67298;Laerm;65443;51.436;5.978;2023-03-01T00:22:28;30.54;29.05;31.77;;
67298;Laerm;65443;51.436;5.978;2023-03-01T00:22:38;30.50;29.00;32.92;;
67298;Laerm;65443;51.436;5.978;2023-03-01T00:22:49;30.53;29.40;32.49;;
67298;Laerm;65443;51.436;5.978;2023-03-01T00:22:59;30.41;28.51;31.88;;
67298;Laerm;65443;51.436;5.978;2023-03-01T00:23:09;30.29;28.97;31.80;;
67298;Laerm;65443;51.436;5.978;2023-03-01T00:23:20;30.14;28.64;31.39;;
67298;Laerm;65443;51.436;5.978;2023-03-01T00:23:30;30.18;28.78;31.52;;
67298;Laerm;65443;51.436;5.978;2023-03-01T00:23:40;30.12;28.69;31.44;;
67298;Laerm;65443;51.436;5.978;2023-03-01T00:23:51;30.13;28.95;31.32;;
67298;Laerm;65443;51.436;5.978;2023-03-01T00:24:01;30.05;28.59;31.19;;
67298;Laerm;65443;51.436;5.978;2023-03-01T00:24:11;30.23;28.64;33.35;;
67298;Laerm;65443;51.436;5.978;2023-03-01T00:24:22;30.46;29.38;32.33;;
67298;Laerm;65443;51.436;5.978;2023-03-01T00:24:32;30.35;28.88;31.67;;
67298;Laerm;65443;51.436;5.978;2023-03-01T00:24:42;30.31;29.09;31.40;;
67298;Laerm;65443;51.436;5.978;2023-03-01T00:24:53;30.22;28.91;31.51;;
67298;Laerm;65443;51.436;5.978;2023-03-01T00:25:03;30.18;28.50;31.86;;
67298;Laerm;65443;51.436;5.978;2023-03-01T00:25:14;30.41;28.95;32.65;;
67298;Laerm;65443;51.436;5.978;2023-03-01T00:25:24;30.05;28.57;33.01;;
67298;Laerm;65443;51.436;5.978;2023-03-01T00:25:40;30.10;28.70;31.60;;
67298;Laerm;65443;51.436;5.978;2023-03-01T00:25:50;30.67;29.20;31.95;;
67298;Laerm;65443;51.436;5.978;2023-03-01T00:26:01;33.68;29.34;51.17;;
67298;Laerm;65443;51.436;5.978;2023-03-01T00:26:12;31.47;29.58;34.05;;
67298;Laerm;65443;51.436;5.978;2023-03-01T00:26:24;32.59;29.86;47.85;;
67298;Laerm;65443;51.436;5.978;2023-03-01T00:26:34;31.36;29.32;36.75;;
67298;Laerm;65443;51.436;5.978;2023-03-01T00:26:45;32.82;30.19;38.36;;
67298;Laerm;65443;51.436;5.978;2023-03-01T00:26:56;31.45;29.28;35.07;;
67298;Laerm;65443;51.436;5.978;2023-03-01T00:27:07;31.09;29.43;33.24;;
67298;Laerm;65443;51.436;5.978;2023-03-01T00:27:17;31.38;29.69;34.71;;
67298;Laerm;65443;51.436;5.978;2023-03-01T00:27:28;31.13;29.50;33.34;;
67298;Laerm;65443;51.436;5.978;2023-03-01T00:27:38;31.26;29.09;33.53;;
67298;Laerm;65443;51.436;5.978;2023-03-01T00:27:48;30.96;29.46;32.28;;
67298;Laerm;65443;51.436;5.978;2023-03-01T00:27:59;30.41;29.03;32.14;;
67298;Laerm;65443;51.436;5.978;2023-03-01T00:28:09;30.28;28.93;32.38;;
67298;Laerm;65443;51.436;5.978;2023-03-01T00:28:19;30.40;29.13;31.80;;
67298;Laerm;65443;51.436;5.978;2023-03-01T00:28:31;30.22;28.68;31.94;;
67298;Laerm;65443;51.436;5.978;2023-03-01T00:28:41;30.11;28.86;31.85;;
67298;Laerm;65443;51.436;5.978;2023-03-01T00:28:51;30.00;28.58;31.27;;
67298;Laerm;65443;51.436;5.978;2023-03-01T00:29:02;30.17;28.92;31.27;;
67298;Laerm;65443;51.436;5.978;2023-03-01T00:29:12;30.03;28.60;31.16;;
67298;Laerm;65443;51.436;5.978;2023-03-01T00:29:23;30.00;28.55;31.27;;
67298;Laerm;65443;51.436;5.978;2023-03-01T00:29:34;30.15;28.83;31.81;;
67298;Laerm;65443;51.436;5.978;2023-03-01T00:29:44;30.19;28.88;31.79;;
67298;Laerm;65443;51.436;5.978;2023-03-01T00:29:54;30.29;29.03;33.69;;
67298;Laerm;65443;51.436;5.978;2023-03-01T00:30:05;30.32;28.76;34.40;;
67298;Laerm;65443;51.436;5.978;2023-03-01T00:30:15;30.52;28.65;32.37;;
67298;Laerm;65443;51.436;5.978;2023-03-01T00:30:26;30.08;28.74;31.95;;
67298;Laerm;65443;51.436;5.978;2023-03-01T00:30:36;29.97;28.19;32.30;;
67298;Laerm;65443;51.436;5.978;2023-03-01T00:30:46;30.06;28.77;31.29;;
67298;Laerm;65443;51.436;5.978;2023-03-01T00:31:02;30.09;28.95;31.73;;
67298;Laerm;65443;51.436;5.978;2023-03-01T00:31:16;52.22;28.77;72.95;;
67298;Laerm;65443;51.436;5.978;2023-03-01T00:31:27;30.20;28.83;31.65;;
67298;Laerm;65443;51.436;5.978;2023-03-01T00:31:39;30.13;28.76;31.62;;
67298;Laerm;65443;51.436;5.978;2023-03-01T00:31:49;30.27;29.03;31.37;;
67298;Laerm;65443;51.436;5.978;2023-03-01T00:31:59;30.14;29.06;31.89;;
67298;Laerm;65443;51.436;5.978;2023-03-01T00:32:10;29.93;28.84;31.20;;
67298;Laerm;65443;51.436;5.978;2023-03-01T00:32:20;29.97;28.79;31.14;;
67298;Laerm;65443;51.436;5.978;2023-03-01T00:32:30;29.84;28.38;30.90;;
67298;Laerm;65443;51.436;5.978;2023-03-01T00:32:40;29.83;28.50;31.21;;
67298;Laerm;65443;51.436;5.978;2023-03-01T00:32:51;29.97;28.45;31.39;;
67298;Laerm;65443;51.436;5.978;2023-03-01T00:33:01;30.12;28.49;31.43;;
67298;Laerm;65443;51.436;5.978;2023-03-01T00:33:12;29.93;28.67;31.73;;
67298;Laerm;65443;51.436;5.978;2023-03-01T00:33:22;29.96;28.50;31.17;;
67298;Laerm;65443;51.436;5.978;2023-03-01T00:33:33;30.00;28.81;31.38;;
67298;Laerm;65443;51.436;5.978;2023-03-01T00:33:43;30.05;28.92;31.25;;
67298;Laerm;65443;51.436;5.978;2023-03-01T00:33:54;29.99;28.62;31.63;;
67298;Laerm;65443;51.436;5.978;2023-03-01T00:34:07;30.00;28.88;31.20;;
67298;Laerm;65443;51.436;5.978;2023-03-01T00:34:18;30.11;28.96;32.17;;
67298;Laerm;65443;51.436;5.978;2023-03-01T00:34:28;30.11;28.88;31.54;;
67298;Laerm;65443;51.436;5.978;2023-03-01T00:34:38;30.09;28.72;31.63;;
67298;Laerm;65443;51.436;5.978;2023-03-01T00:34:48;30.13;28.78;31.54;;
67298;Laerm;65443;51.436;5.978;2023-03-01T00:35:04;29.94;28.54;31.43;;
67298;Laerm;65443;51.436;5.978;2023-03-01T00:35:15;30.09;28.84;31.25;;
67298;Laerm;65443;51.436;5.978;2023-03-01T00:35:26;30.14;28.57;31.93;;
67298;Laerm;65443;51.436;5.978;2023-03-01T00:35:36;29.96;28.53;31.10;;
67298;Laerm;65443;51.436;5.978;2023-03-01T00:35:46;30.03;28.91;31.53;;
67298;Laerm;65443;51.436;5.978;2023-03-01T00:35:59;30.29;28.90;31.87;;
67298;Laerm;65443;51.436;5.978;2023-03-01T00:36:11;30.77;29.16;32.80;;
67298;Laerm;65443;51.436;5.978;2023-03-01T00:36:22;57.12;28.99;65.78;;
67298;Laerm;65443;51.436;5.978;2023-03-01T00:36:35;60.67;52.04;67.74;;
67298;Laerm;65443;51.436;5.978;2023-03-01T00:36:45;54.35;50.32;56.93;;
67298;Laerm;65443;51.436;5.978;2023-03-01T00:36:56;51.44;48.08;54.65;;
67298;Laerm;65443;51.436;5.978;2023-03-01T00:37:15;76.76;48.96;82.09;;
67298;Laerm;65443;51.436;5.978;2023-03-01T00:37:25;81.28;77.69;83.65;;
67298;Laerm;65443;51.436;5.978;2023-03-01T00:37:35;78.68;58.83;84.06;;
67298;Laerm;65443;51.436;5.978;2023-03-01T00:37:46;55.51;46.31;63.50;;
67298;Laerm;65443;51.436;5.978;2023-03-01T00:37:56;45.66;41.90;50.23;;
67298;Laerm;65443;51.436;5.978;2023-03-01T00:38:08;44.00;40.86;49.29;;
67298;Laerm;65443;51.436;5.978;2023-03-01T00:38:18;45.06;41.44;47.91;;
67298;Laerm;65443;51.436;5.978;2023-03-01T00:38:28;45.08;40.90;48.81;;
67298;Laerm;65443;51.436;5.978;2023-03-01T00:38:40;40.86;36.07;45.64;;
67298;Laerm;65443;51.436;5.978;2023-03-01T00:38:51;35.74;32.42;39.03;;
67298;Laerm;65443;51.436;5.978;2023-03-01T00:39:01;35.16;32.28;37.97;;
67298;Laerm;65443;51.436;5.978;2023-03-01T00:39:13;34.11;31.18;37.08;;
67298;Laerm;65443;51.436;5.978;2023-03-01T00:39:24;34.37;31.01;37.59;;
67298;Laerm;65443;51.436;5.978;2023-03-01T00:39:34;34.28;31.46;36.84;;
67298;Laerm;65443;51.436;5.978;2023-03-01T00:39:45;32.70;30.93;34.91;;
67298;Laerm;65443;51.436;5.978;2023-03-01T00:39:55;32.81;30.57;35.08;;
67298;Laerm;65443;51.436;5.978;2023-03-01T00:40:05;34.99;31.75;37.23;;
67298;Laerm;65443;51.436;5.978;2023-03-01T00:40:16;35.52;32.79;38.54;;
67298;Laerm;65443;51.436;5.978;2023-03-01T00:40:27;60.32;36.39;68.84;;
67298;Laerm;65443;51.436;5.978;2023-03-01T00:40:37;59.27;50.99;66.84;;
67298;Laerm;65443;51.436;5.978;2023-03-01T00:40:47;53.26;49.38;56.90;;
67298;Laerm;65443;51.436;5.978;2023-03-01T00:41:02;68.11;51.41;78.28;;
67298;Laerm;65443;51.436;5.978;2023-03-01T00:41:14;69.48;37.85;78.65;;
67298;Laerm;65443;51.436;5.978;2023-03-01T00:41:24;37.17;32.54;42.65;;
67298;Laerm;65443;51.436;5.978;2023-03-01T00:41:36;34.26;31.34;43.44;;
67298;Laerm;65443;51.436;5.978;2023-03-01T00:41:46;34.17;31.65;37.14;;
67298;Laerm;65443;51.436;5.978;2023-03-01T00:41:57;35.11;31.03;40.13;;
67298;Laerm;65443;51.436;5.978;2023-03-01T00:42:07;32.29;30.07;35.44;;
67298;Laerm;65443;51.436;5.978;2023-03-01T00:42:17;31.55;29.58;34.10;;
67298;Laerm;65443;51.436;5.978;2023-03-01T00:42:28;31.03;29.58;32.87;;
67298;Laerm;65443;51.436;5.978;2023-03-01T00:42:38;30.72;29.22;32.47;;
67298;Laerm;65443;51.436;5.978;2023-03-01T00:42:48;30.73;29.06;33.00;;
67298;Laerm;65443;51.436;5.978;2023-03-01T00:42:58;30.75;29.19;32.91;;
67298;Laerm;65443;51.436;5.978;2023-03-01T00:43:09;30.48;29.02;31.82;;
67298;Laerm;65443;51.436;5.978;2023-03-01T00:43:20;30.32;28.52;31.83;;
67298;Laerm;65443;51.436;5.978;2023-03-01T00:43:30;30.31;29.02;31.63;;
67298;Laerm;65443;51.436;5.978;2023-03-01T00:43:41;30.17;28.50;31.44;;
67298;Laerm;65443;51.436;5.978;2023-03-01T00:43:51;30.34;29.00;31.76;;
67298;Laerm;65443;51.436;5.978;2023-03-01T00:44:02;30.41;29.12;31.52;;
67298;Laerm;65443;51.436;5.978;2023-03-01T00:44:12;31.87;29.37;36.43;;
67298;Laerm;65443;51.436;5.978;2023-03-01T00:44:23;32.03;29.79;38.06;;
67298;Laerm;65443;51.436;5.978;2023-03-01T00:44:33;31.16;29.34;34.26;;
67298;Laerm;65443;51.436;5.978;2023-03-01T00:44:44;33.06;29.82;36.86;;
67298;Laerm;65443;51.436;5.978;2023-03-01T00:44:54;32.83;29.04;37.25;;
67298;Laerm;65443;51.436;5.978;2023-03-01T00:45:05;33.63;29.30;37.51;;
67298;Laerm;65443;51.436;5.978;2023-03-01T00:45:15;32.81;30.30;37.90;;
67298;Laerm;65443;51.436;5.978;2023-03-01T00:45:26;31.92;29.46;36.24;;
67298;Laerm;65443;51.436;5.978;2023-03-01T00:45:37;30.35;29.11;31.87;;
67298;Laerm;65443;51.436;5.978;2023-03-01T00:45:47;30.52;28.99;31.96;;
67298;Laerm;65443;51.436;5.978;2023-03-01T00:46:00;30.54;29.03;32.12;;
67298;Laerm;65443;51.436;5.978;2023-03-01T00:46:12;30.17;28.70;31.52;;
67298;Laerm;65443;51.436;5.978;2023-03-01T00:46:24;33.38;28.92;52.39;;
67298;Laerm;65443;51.436;5.978;2023-03-01T00:46:35;30.10;28.74;31.50;;
67298;Laerm;65443;51.436;5.978;2023-03-01T00:46:45;31.16;28.68;48.42;;
67298;Laerm;65443;51.436;5.978;2023-03-01T00:46:55;30.09;28.62;31.22;;
67298;Laerm;65443;51.436;5.978;2023-03-01T00:47:06;30.14;28.59;31.43;;
67298;Laerm;65443;51.436;5.978;2023-03-01T00:47:16;30.09;28.77;31.66;;
67298;Laerm;65443;51.436;5.978;2023-03-01T00:47:28;30.29;28.59;33.85;;
67298;Laerm;65443;51.436;5.978;2023-03-01T00:47:38;30.08;28.53;31.70;;
67298;Laerm;65443;51.436;5.978;2023-03-01T00:47:49;30.07;28.80;31.62;;
67298;Laerm;65443;51.436;5.978;2023-03-01T00:48:00;30.24;28.97;31.65;;
67298;Laerm;65443;51.436;5.978;2023-03-01T00:48:10;30.19;29.01;31.43;;
67298;Laerm;65443;51.436;5.978;2023-03-01T00:48:20;30.25;28.54;31.43;;
67298;Laerm;65443;51.436;5.978;2023-03-01T00:48:31;30.44;28.91;35.10;;
67298;Laerm;65443;51.436;5.978;2023-03-01T00:48:41;30.49;29.27;32.01;;
67298;Laerm;65443;51.436;5.978;2023-03-01T00:48:52;30.51;28.86;32.11;;
67298;Laerm;65443;51.436;5.978;2023-03-01T00:49:03;30.18;28.96;31.39;;
67298;Laerm;65443;51.436;5.978;2023-03-01T00:49:14;31.07;29.17;33.54;;
67298;Laerm;65443;51.436;5.978;2023-03-01T00:49:24;31.54;29.30;34.45;;
67298;Laerm;65443;51.436;5.978;2023-03-01T00:49:37;32.95;30.48;35.75;;
67298;Laerm;65443;51.436;5.978;2023-03-01T00:49:48;33.18;30.81;36.92;;
67298;Laerm;65443;51.436;5.978;2023-03-01T00:49:58;31.87;30.03;35.31;;
67298;Laerm;65443;51.436;5.978;2023-03-01T00:50:09;31.18;28.96;33.18;;
67298;Laerm;65443;51.436;5.978;2023-03-01T00:50:19;30.43;29.02;32.20;;
67298;Laerm;65443;51.436;5.978;2023-03-01T00:50:30;30.48;29.02;31.83;;
67298;Laerm;65443;51.436;5.978;2023-03-01T00:50:40;30.46;28.95;32.05;;
67298;Laerm;65443;51.436;5.978;2023-03-01T00:50:50;30.70;29.29;31.90;;
67298;Laerm;65443;51.436;5.978;2023-03-01T00:51:34;30.67;29.16;32.12;;
67298;Laerm;65443;51.436;5.978;2023-03-01T00:51:37;30.23;28.59;32.66;;
67298;Laerm;65443;51.436;5.978;2023-03-01T00:51:49;30.15;28.94;31.52;;
67298;Laerm;65443;51.436;5.978;2023-03-01T00:51:59;30.39;28.62;32.02;;
67298;Laerm;65443;51.436;5.978;2023-03-01T00:52:09;30.12;28.35;32.04;;
67298;Laerm;65443;51.436;5.978;2023-03-01T00:52:20;30.42;28.73;31.80;;
67298;Laerm;65443;51.436;5.978;2023-03-01T00:52:30;30.92;29.30;32.84;;
67298;Laerm;65443;51.436;5.978;2023-03-01T00:52:40;32.57;29.94;36.71;;
67298;Laerm;65443;51.436;5.978;2023-03-01T00:52:54;33.24;30.90;35.46;;
67298;Laerm;65443;51.436;5.978;2023-03-01T00:53:04;34.46;30.37;42.46;;
67298;Laerm;65443;51.436;5.978;2023-03-01T00:53:15;35.47;31.40;39.87;;
67298;Laerm;65443;51.436;5.978;2023-03-01T00:53:25;33.64;30.99;38.46;;
67298;Laerm;65443;51.436;5.978;2023-03-01T00:53:35;40.85;30.71;50.01;;
67298;Laerm;65443;51.436;5.978;2023-03-01T00:53:46;32.14;30.07;34.29;;
67298;Laerm;65443;51.436;5.978;2023-03-01T00:54:00;37.55;31.26;44.13;;
67298;Laerm;65443;51.436;5.978;2023-03-01T00:54:10;35.54;30.01;40.09;;
67298;Laerm;65443;51.436;5.978;2023-03-01T00:54:21;32.25;29.61;36.63;;
67298;Laerm;65443;51.436;5.978;2023-03-01T00:54:31;30.92;29.15;33.36;;
67298;Laerm;65443;51.436;5.978;2023-03-01T00:54:41;30.24;28.83;31.63;;
67298;Laerm;65443;51.436;5.978;2023-03-01T00:54:52;30.41;28.69;32.08;;
67298;Laerm;65443;51.436;5.978;2023-03-01T00:55:03;30.71;29.05;32.39;;
67298;Laerm;65443;51.436;5.978;2023-03-01T00:55:14;30.38;29.07;32.16;;
67298;Laerm;65443;51.436;5.978;2023-03-01T00:55:24;30.84;29.35;33.90;;
67298;Laerm;65443;51.436;5.978;2023-03-01T00:55:35;30.28;29.04;32.30;;
67298;Laerm;65443;51.436;5.978;2023-03-01T00:55:46;30.13;28.91;31.64;;
67298;Laerm;65443;51.436;5.978;2023-03-01T00:55:56;30.14;28.74;31.45;;
67298;Laerm;65443;51.436;5.978;2023-03-01T00:56:08;30.22;28.88;31.80;;
67298;Laerm;65443;51.436;5.978;2023-03-01T00:56:19;30.32;28.82;31.46;;
67298;Laerm;65443;51.436;5.978;2023-03-01T00:56:29;30.22;28.79;31.73;;
67298;Laerm;65443;51.436;5.978;2023-03-01T00:56:40;30.23;28.68;31.49;;
67298;Laerm;65443;51.436;5.978;2023-03-01T00:56:50;30.36;29.07;31.76;;
67298;Laerm;65443;51.436;5.978;2023-03-01T00:57:01;30.56;29.18;31.86;;
67298;Laerm;65443;51.436;5.978;2023-03-01T00:57:11;30.55;28.68;32.20;;
67298;Laerm;65443;51.436;5.978;2023-03-01T00:57:21;30.48;29.13;31.83;;
67298;Laerm;65443;51.436;5.978;2023-03-01T00:57:31;30.26;28.99;31.61;;
67298;Laerm;65443;51.436;5.978;2023-03-01T00:57:42;30.17;29.01;31.39;;
67298;Laerm;65443;51.436;5.978;2023-03-01T00:57:52;30.19;28.43;31.65;;
67298;Laerm;65443;51.436;5.978;2023-03-01T00:58:02;30.42;28.75;32.01;;
67298;Laerm;65443;51.436;5.978;2023-03-01T00:58:13;30.20;28.74;31.88;;
67298;Laerm;65443;51.436;5.978;2023-03-01T00:58:23;30.16;28.63;31.55;;
67298;Laerm;65443;51.436;5.978;2023-03-01T00:58:33;30.10;28.89;32.86;;
67298;Laerm;65443;51.436;5.978;2023-03-01T00:58:44;29.98;28.47;31.13;;
67298;Laerm;65443;51.436;5.978;2023-03-01T00:58:54;30.16;28.65;31.42;;
67298;Laerm;65443;51.436;5.978;2023-03-01T00:59:04;30.11;28.82;31.43;;
67298;Laerm;65443;51.436;5.978;2023-03-01T00:59:14;29.96;28.52;31.82;;
67298;Laerm;65443;51.436;5.978;2023-03-01T00:59:25;30.09;28.84;31.70;;
67298;Laerm;65443;51.436;5.978;2023-03-01T00:59:35;29.96;28.80;31.43;;
67298;Laerm;65443;51.436;5.978;2023-03-01T00:59:45;29.95;28.64;31.28;;
67298;Laerm;65443;51.436;5.978;2023-03-01T00:59:56;30.06;28.68;31.39;;
67298;Laerm;65443;51.436;5.978;2023-03-01T01:00:06;54.14;28.84;70.73;;
67298;Laerm;65443;51.436;5.978;2023-03-01T01:00:17;54.98;29.74;70.86;;
67298;Laerm;65443;51.436;5.978;2023-03-01T01:00:28;30.25;28.72;32.26;;
67298;Laerm;65443;51.436;5.978;2023-03-01T01:00:38;30.22;29.02;31.90;;
67298;Laerm;65443;51.436;5.978;2023-03-01T01:00:48;30.33;29.17;31.52;;